createdAt,value
2019-04-30T00:01:38.429Z,50.20
2019-04-30T00:04:21.351Z,50.20
2019-04-30T00:06:50.417Z,50.30
2019-04-30T00:09:22.354Z,50.00
2019-04-30T00:11:57.888Z,50.20
2019-04-30T00:14:21.977Z,50.20
2019-04-30T00:16:50.894Z,50.10
2019-04-30T00:19:20.034Z,50.10
2019-04-30T00:21:57.033Z,50.30
2019-04-30T00:24:19.653Z,50.40
2019-04-30T00:26:52.210Z,50.60
2019-04-30T00:29:26.932Z,50.60
2019-04-30T00:31:49.846Z,50.30
2019-04-30T00:34:18.680Z,50.40
2019-04-30T00:36:47.625Z,50.30
2019-04-30T00:39:16.810Z,50.70
2019-04-30T00:41:47.388Z,50.50
2019-04-30T00:44:19.892Z,50.30
2019-04-30T00:46:48.009Z,50.50
2019-04-30T00:49:22.852Z,50.30
2019-04-30T00:51:49.771Z,50.40
2019-04-30T00:54:22.556Z,50.70
2019-04-30T00:56:49.210Z,50.70
2019-04-30T00:59:18.137Z,50.60
2019-04-30T01:02:06.175Z,50.40
2019-04-30T01:04:40.454Z,50.70
2019-04-30T01:07:10.278Z,50.60
2019-04-30T01:09:46.512Z,50.60
2019-04-30T01:12:12.004Z,50.40
2019-04-30T01:14:41.138Z,50.80
2019-04-30T01:17:12.255Z,50.80
2019-04-30T01:19:40.859Z,50.60
2019-04-30T01:22:09.848Z,50.70
2019-04-30T01:24:38.898Z,50.60
2019-04-30T01:27:10.404Z,51.00
2019-04-30T01:29:44.142Z,50.60
2019-04-30T01:32:10.449Z,50.50
2019-04-30T01:34:44.227Z,50.70
2019-04-30T01:37:10.834Z,50.70
2019-04-30T01:39:39.781Z,50.30
2019-04-30T01:42:11.430Z,50.30
2019-04-30T01:44:43.365Z,50.40
2019-04-30T01:47:09.917Z,50.60
2019-04-30T01:49:42.716Z,50.70
2019-04-30T01:52:09.620Z,50.30
2019-04-30T01:54:39.182Z,50.40
2019-04-30T01:57:30.678Z,50.40
2019-04-30T02:00:24.543Z,50.30
2019-04-30T02:02:53.517Z,50.60
2019-04-30T02:05:22.586Z,50.40
2019-04-30T02:07:51.637Z,50.40
2019-04-30T02:10:20.781Z,50.40
2019-04-30T02:12:49.751Z,50.40
2019-04-30T02:15:19.234Z,50.80
2019-04-30T02:17:50.382Z,50.70
2019-04-30T02:20:19.551Z,50.60
2019-04-30T02:22:48.725Z,50.70
2019-04-30T02:25:19.399Z,50.60
2019-04-30T02:27:48.963Z,50.70
2019-04-30T02:30:20.943Z,50.60
2019-04-30T02:32:52.109Z,50.50
2019-04-30T02:35:40.878Z,50.90
2019-04-30T02:38:26.464Z,51.10
2019-04-30T02:40:56.436Z,50.70
2019-04-30T02:43:29.875Z,50.40
2019-04-30T02:45:59.934Z,50.60
2019-04-30T02:48:31.568Z,51.00
2019-04-30T02:51:03.547Z,50.80
2019-04-30T02:54:06.317Z,51.00
2019-04-30T02:56:35.361Z,50.80
2019-04-30T02:59:04.471Z,51.20
2019-04-30T03:01:33.410Z,51.00
2019-04-30T03:04:02.351Z,51.20
2019-04-30T03:06:31.196Z,51.40
2019-04-30T03:09:01.057Z,51.30
2019-04-30T03:11:30.473Z,51.30
2019-04-30T03:13:59.638Z,51.30
2019-04-30T03:16:40.094Z,51.10
2019-04-30T03:19:19.510Z,51.20
2019-04-30T03:21:54.778Z,51.30
2019-04-30T03:24:23.705Z,51.30
2019-04-30T03:26:52.542Z,51.30
2019-04-30T03:29:23.890Z,51.40
2019-04-30T03:31:52.768Z,51.30
2019-04-30T03:34:25.610Z,51.30
2019-04-30T03:36:52.586Z,51.20
2019-04-30T03:39:21.584Z,51.60
2019-04-30T03:41:50.583Z,51.50
2019-04-30T03:44:25.605Z,51.30
2019-04-30T03:46:50.138Z,51.60
2019-04-30T03:49:20.326Z,51.50
2019-04-30T03:51:50.024Z,51.30
2019-04-30T03:54:19.638Z,51.50
2019-04-30T03:56:50.299Z,51.40
2019-04-30T03:59:20.054Z,51.40
2019-04-30T04:02:20.567Z,51.40
2019-04-30T04:05:25.452Z,51.50
2019-04-30T04:08:19.652Z,51.80
2019-04-30T04:11:21.264Z,51.40
2019-04-30T04:13:50.282Z,51.40
2019-04-30T04:16:19.565Z,51.80
2019-04-30T04:18:50.101Z,51.70
2019-04-30T04:21:20.593Z,51.60
2019-04-30T04:23:50.003Z,51.50
2019-04-30T04:26:20.229Z,51.70
2019-04-30T04:28:49.909Z,52.00
2019-04-30T04:31:19.513Z,51.60
2019-04-30T04:33:49.626Z,51.60
2019-04-30T04:36:20.015Z,51.70
2019-04-30T04:38:50.651Z,51.60
2019-04-30T04:41:20.243Z,51.70
2019-04-30T04:43:50.360Z,51.60
2019-04-30T04:46:20.510Z,51.60
2019-04-30T04:48:49.837Z,51.80
2019-04-30T04:51:31.450Z,51.90
2019-04-30T04:53:50.031Z,52.00
2019-04-30T04:56:19.329Z,51.80
2019-04-30T04:58:50.218Z,52.00
2019-04-30T05:01:20.405Z,52.00
2019-04-30T05:03:49.482Z,52.00
2019-04-30T05:06:21.892Z,51.80
2019-04-30T05:08:49.361Z,51.80
2019-04-30T05:11:19.253Z,52.00
2019-04-30T05:13:49.039Z,52.00
2019-04-30T05:16:19.136Z,52.10
2019-04-30T05:18:48.869Z,52.10
2019-04-30T05:21:18.805Z,52.10
2019-04-30T05:23:49.211Z,52.30
2019-04-30T05:26:19.106Z,52.40
2019-04-30T05:28:51.100Z,52.40
2019-04-30T05:31:20.993Z,52.40
2019-04-30T05:33:49.572Z,52.50
2019-04-30T05:36:19.173Z,52.50
2019-04-30T05:38:48.750Z,52.40
2019-04-30T05:41:19.316Z,52.50
2019-04-30T05:43:48.853Z,52.50
2019-04-30T05:46:19.618Z,52.60
2019-04-30T05:48:49.528Z,52.50
2019-04-30T05:51:21.162Z,52.50
2019-04-30T05:53:49.614Z,52.50
2019-04-30T05:56:19.289Z,52.30
2019-04-30T05:58:49.463Z,52.60
2019-04-30T06:01:19.627Z,52.40
2019-04-30T06:03:48.844Z,52.10
2019-04-30T06:06:19.312Z,52.20
2019-04-30T06:09:14.935Z,52.10
2019-04-30T06:12:14.741Z,52.50
2019-04-30T06:14:49.874Z,52.50
2019-04-30T06:17:19.805Z,52.50
2019-04-30T06:19:51.447Z,52.40
2019-04-30T06:22:19.759Z,52.50
2019-04-30T06:24:49.533Z,52.00
2019-04-30T06:27:19.357Z,52.00
2019-04-30T06:29:49.073Z,52.10
2019-04-30T06:32:18.669Z,52.10
2019-04-30T06:34:49.868Z,52.10
2019-04-30T06:37:19.651Z,52.20
2019-04-30T06:39:50.089Z,52.00
2019-04-30T06:42:21.999Z,52.10
2019-04-30T06:44:51.569Z,51.90
2019-04-30T06:47:32.504Z,52.00
2019-04-30T06:49:52.001Z,52.40
2019-04-30T06:52:23.500Z,52.30
2019-04-30T06:54:51.711Z,51.90
2019-04-30T06:57:20.538Z,52.20
2019-04-30T06:59:51.512Z,52.00
2019-04-30T07:02:20.163Z,52.00
2019-04-30T07:04:49.412Z,51.80
2019-04-30T07:07:22.981Z,51.40
2019-04-30T07:10:16.919Z,51.80
2019-04-30T07:12:49.144Z,51.20
2019-04-30T07:15:19.634Z,51.20
2019-04-30T07:17:49.250Z,51.40
2019-04-30T07:20:19.152Z,50.90
2019-04-30T07:22:52.352Z,51.20
2019-04-30T07:25:19.547Z,51.00
2019-04-30T07:27:50.593Z,50.80
2019-04-30T07:30:19.830Z,50.50
2019-04-30T07:32:48.932Z,50.00
2019-04-30T07:35:19.509Z,50.30
2019-04-30T07:37:49.692Z,50.20
2019-04-30T07:40:19.213Z,50.00
2019-04-30T07:42:49.236Z,49.80
2019-04-30T07:45:19.452Z,49.60
2019-04-30T07:47:49.433Z,49.90
2019-04-30T07:50:21.399Z,49.90
2019-04-30T07:55:20.118Z,49.80
2019-04-30T07:57:50.586Z,49.80
2019-04-30T08:00:19.843Z,49.60
2019-04-30T08:03:00.037Z,49.60
2019-04-30T08:05:35.950Z,49.60
2019-04-30T08:08:20.221Z,49.80
2019-04-30T08:09:35.523Z,49.80
2019-04-30T08:10:35.737Z,50.30
2019-04-30T08:13:10.524Z,49.20
2019-04-30T08:15:35.526Z,49.20
2019-04-30T08:18:05.918Z,49.30
2019-04-30T08:20:35.006Z,49.50
2019-04-30T08:23:15.686Z,50.00
2019-04-30T08:25:34.736Z,49.60
2019-04-30T08:28:03.643Z,49.60
2019-04-30T08:30:32.518Z,49.70
2019-04-30T08:33:01.573Z,49.70
2019-04-30T08:35:30.504Z,49.50
2019-04-30T08:37:59.337Z,49.30
2019-04-30T08:40:29.719Z,49.30
2019-04-30T08:42:59.492Z,49.60
2019-04-30T08:45:31.057Z,49.20
2019-04-30T08:47:59.617Z,49.00
2019-04-30T08:50:29.706Z,49.10
2019-04-30T08:52:59.762Z,49.70
2019-04-30T08:55:30.365Z,49.20
2019-04-30T08:58:09.617Z,49.00
2019-04-30T09:00:30.797Z,49.60
2019-04-30T09:02:59.794Z,48.80
2019-04-30T09:05:49.790Z,48.70
2019-04-30T09:08:19.412Z,49.10
2019-04-30T09:10:49.059Z,49.10
2019-04-30T09:13:19.173Z,49.00
2019-04-30T09:15:49.229Z,49.10
2019-04-30T09:18:19.157Z,49.20
2019-04-30T09:20:49.504Z,48.90
2019-04-30T09:23:18.838Z,49.20
2019-04-30T09:25:49.613Z,49.10
2019-04-30T09:28:19.871Z,49.20
2019-04-30T09:30:49.282Z,49.20
2019-04-30T09:33:19.457Z,49.30
2019-04-30T09:35:49.536Z,49.50
2019-04-30T09:38:19.516Z,49.50
2019-04-30T09:40:50.591Z,49.30
2019-04-30T09:43:19.463Z,49.40
2019-04-30T09:45:49.758Z,49.30
2019-04-30T09:48:19.174Z,49.50
2019-04-30T09:50:49.705Z,49.40
2019-04-30T09:53:19.905Z,49.30
2019-04-30T09:55:49.609Z,49.20
2019-04-30T09:58:21.188Z,49.50
2019-04-30T10:00:50.377Z,49.50
2019-04-30T10:03:20.734Z,49.40
2019-04-30T10:05:50.143Z,49.30
2019-04-30T10:08:20.880Z,49.30
2019-04-30T10:11:09.663Z,49.40
2019-04-30T10:13:38.351Z,49.40
2019-04-30T10:16:15.419Z,49.40
2019-04-30T10:18:44.288Z,49.50
2019-04-30T10:21:13.210Z,49.30
2019-04-30T10:23:42.219Z,49.10
2019-04-30T10:26:11.229Z,49.30
2019-04-30T10:28:43.815Z,49.30
2019-04-30T10:31:12.992Z,49.20
2019-04-30T10:33:42.008Z,49.20
2019-04-30T10:36:11.102Z,49.20
2019-04-30T10:38:40.070Z,49.20
2019-04-30T10:41:09.165Z,49.10
2019-04-30T10:43:39.304Z,48.70
2019-04-30T10:46:09.814Z,48.90
2019-04-30T10:48:38.972Z,49.20
2019-04-30T10:51:09.056Z,49.20
2019-04-30T10:53:38.423Z,49.20
2019-04-30T10:56:09.589Z,49.20
2019-04-30T10:58:38.221Z,49.20
2019-04-30T11:01:09.244Z,49.20
2019-04-30T11:03:39.136Z,49.20
2019-04-30T11:08:51.502Z,49.20
2019-04-30T11:11:20.439Z,49.30
2019-04-30T11:13:49.422Z,49.20
2019-04-30T11:16:18.922Z,49.30
2019-04-30T11:18:48.446Z,49.20
2019-04-30T11:21:19.748Z,49.20
2019-04-30T11:23:49.478Z,49.20
2019-04-30T11:26:19.352Z,49.20
2019-04-30T11:28:49.037Z,49.20
2019-04-30T11:31:36.094Z,49.20
2019-04-30T11:34:06.582Z,49.20
2019-04-30T11:36:35.601Z,49.20
2019-04-30T11:39:08.635Z,49.20
2019-04-30T11:41:39.551Z,49.20
2019-04-30T11:44:09.286Z,49.20
2019-04-30T11:47:09.624Z,49.10
2019-04-30T11:49:38.885Z,49.10
2019-04-30T11:52:07.857Z,49.40
2019-04-30T11:54:48.481Z,48.90
2019-04-30T11:57:08.872Z,49.00
2019-04-30T11:59:39.530Z,48.90
2019-04-30T12:02:19.101Z,48.90
2019-04-30T12:04:49.482Z,49.00
2019-04-30T12:07:25.492Z,48.90
2019-04-30T12:10:16.556Z,48.90
2019-04-30T12:12:45.485Z,48.80
2019-04-30T12:15:14.578Z,48.70
2019-04-30T12:17:43.531Z,48.90
2019-04-30T12:20:12.593Z,48.80
2019-04-30T12:22:41.484Z,48.80
2019-04-30T12:25:10.461Z,48.80
2019-04-30T12:27:39.490Z,48.80
2019-04-30T12:30:09.528Z,48.80
2019-04-30T12:32:39.321Z,49.30
2019-04-30T12:35:08.897Z,48.80
2019-04-30T12:37:39.072Z,48.80
2019-04-30T12:40:10.808Z,48.80
2019-04-30T12:42:39.651Z,48.80
2019-04-30T12:45:09.495Z,48.70
2019-04-30T12:47:42.919Z,48.50
2019-04-30T12:50:39.223Z,48.50
2019-04-30T12:53:12.145Z,48.50
2019-04-30T12:56:09.920Z,48.50
2019-04-30T12:58:38.969Z,48.60
2019-04-30T13:01:09.042Z,48.50
2019-04-30T13:03:39.923Z,48.60
2019-04-30T13:06:11.095Z,48.60
2019-04-30T13:08:40.165Z,48.60
2019-04-30T13:11:12.847Z,48.40
2019-04-30T13:13:41.484Z,48.30
2019-04-30T13:16:10.984Z,48.40
2019-04-30T13:18:39.915Z,48.40
2019-04-30T13:21:08.948Z,48.40
2019-04-30T13:23:37.882Z,48.30
2019-04-30T13:26:08.803Z,48.20
2019-04-30T13:28:49.987Z,48.30
2019-04-30T13:31:19.310Z,48.20
2019-04-30T13:33:53.308Z,48.20
2019-04-30T13:36:22.995Z,48.30
2019-04-30T13:39:10.305Z,48.20
2019-04-30T13:41:46.138Z,48.20
2019-04-30T13:44:19.399Z,48.20
2019-04-30T13:46:48.138Z,48.20
2019-04-30T13:49:17.082Z,48.70
2019-04-30T13:51:46.005Z,48.10
2019-04-30T13:54:15.023Z,48.10
2019-04-30T13:56:43.939Z,48.10
2019-04-30T13:59:12.778Z,48.10
2019-04-30T14:01:41.812Z,48.00
2019-04-30T14:04:29.763Z,47.90
2019-04-30T14:07:14.961Z,47.80
2019-04-30T14:09:43.806Z,47.90
2019-04-30T14:12:12.706Z,48.00
2019-04-30T14:14:41.710Z,47.80
2019-04-30T14:17:10.689Z,47.70
2019-04-30T14:19:39.683Z,47.80
2019-04-30T14:22:09.856Z,47.90
2019-04-30T14:24:38.773Z,47.90
2019-04-30T14:27:09.022Z,48.00
2019-04-30T14:29:39.589Z,48.00
2019-04-30T14:32:08.766Z,48.00
2019-04-30T14:34:39.438Z,48.20
2019-04-30T14:37:08.381Z,48.10
2019-04-30T14:39:37.601Z,48.00
2019-04-30T14:42:10.302Z,48.10
2019-04-30T14:44:40.182Z,48.00
2019-04-30T14:47:30.361Z,48.20
2019-04-30T14:50:09.759Z,48.00
2019-04-30T14:53:03.951Z,48.30
2019-04-30T14:55:51.762Z,48.30
2019-04-30T14:58:49.216Z,48.30
2019-04-30T15:01:37.049Z,48.30
2019-04-30T15:04:06.055Z,48.30
2019-04-30T15:06:34.871Z,48.30
2019-04-30T15:09:04.677Z,48.30
2019-04-30T15:11:34.287Z,48.30
2019-04-30T15:14:03.273Z,48.50
2019-04-30T15:16:32.191Z,48.50
2019-04-30T15:19:01.054Z,48.40
2019-04-30T15:21:30.053Z,48.40
2019-04-30T15:24:06.207Z,48.30
2019-04-30T15:26:35.203Z,48.30
2019-04-30T15:29:11.730Z,48.30
2019-04-30T15:31:35.146Z,48.30
2019-04-30T15:34:11.106Z,48.10
2019-04-30T15:36:40.948Z,48.30
2019-04-30T15:39:30.849Z,48.20
2019-04-30T15:42:00.111Z,48.20
2019-04-30T15:44:29.110Z,48.20
2019-04-30T15:47:00.410Z,48.50
2019-04-30T15:49:28.878Z,48.40
2019-04-30T15:51:57.791Z,48.30
2019-04-30T15:54:26.801Z,48.10
2019-04-30T15:56:55.846Z,48.30
2019-04-30T15:59:35.414Z,48.30
2019-04-30T16:02:10.557Z,48.30
2019-04-30T16:04:57.262Z,48.40
2019-04-30T16:07:26.249Z,48.40
2019-04-30T16:10:20.634Z,48.40
2019-04-30T16:13:01.871Z,48.30
2019-04-30T16:15:30.890Z,48.50
2019-04-30T16:18:01.546Z,48.40
2019-04-30T16:20:30.454Z,48.40
2019-04-30T16:22:59.570Z,48.50
2019-04-30T16:25:30.306Z,48.30
2019-04-30T16:27:59.214Z,48.40
2019-04-30T16:30:28.914Z,48.30
2019-04-30T16:32:59.628Z,48.40
2019-04-30T16:35:29.532Z,48.30
2019-04-30T16:37:59.402Z,48.40
2019-04-30T16:40:29.052Z,48.30
2019-04-30T16:42:58.357Z,48.40
2019-04-30T16:45:28.980Z,48.50
2019-04-30T16:47:58.270Z,48.50
2019-04-30T16:50:27.219Z,48.50
2019-04-30T16:52:56.054Z,48.50
2019-04-30T16:55:24.922Z,48.60
2019-04-30T16:57:54.050Z,48.50
2019-04-30T17:00:24.634Z,48.70
2019-04-30T17:02:59.326Z,48.60
2019-04-30T17:05:40.330Z,48.50
2019-04-30T17:08:15.074Z,48.50
2019-04-30T17:10:52.995Z,48.50
2019-04-30T17:13:30.980Z,48.70
2019-04-30T17:16:06.939Z,48.60
2019-04-30T17:18:35.984Z,48.50
2019-04-30T17:21:04.978Z,48.60
2019-04-30T17:23:33.899Z,48.50
2019-04-30T17:26:02.902Z,48.60
2019-04-30T17:28:31.890Z,48.60
2019-04-30T17:31:00.764Z,48.60
2019-04-30T17:33:29.653Z,48.60
2019-04-30T17:35:58.665Z,48.60
2019-04-30T17:38:27.641Z,48.60
2019-04-30T17:40:56.607Z,48.50
2019-04-30T17:43:25.513Z,48.70
2019-04-30T17:45:54.461Z,48.90
2019-04-30T17:48:23.393Z,48.80
2019-04-30T17:50:52.554Z,48.80
2019-04-30T17:53:21.574Z,48.60
2019-04-30T17:55:50.615Z,48.80
2019-04-30T17:58:20.634Z,48.70
2019-04-30T18:00:53.782Z,48.80
2019-04-30T18:03:22.695Z,48.50
2019-04-30T18:05:51.589Z,48.60
2019-04-30T18:08:21.112Z,48.80
2019-04-30T18:10:50.325Z,48.90
2019-04-30T18:13:19.275Z,48.80
2019-04-30T18:15:48.452Z,48.80
2019-04-30T18:18:26.248Z,48.90
2019-04-30T18:21:09.039Z,48.90
2019-04-30T18:23:54.559Z,48.80
2019-04-30T18:26:23.575Z,48.70
2019-04-30T18:28:52.548Z,49.00
2019-04-30T18:31:21.478Z,49.10
2019-04-30T18:33:51.428Z,49.00
2019-04-30T18:36:20.632Z,49.10
2019-04-30T18:38:50.296Z,49.20
2019-04-30T18:41:19.536Z,49.10
2019-04-30T18:43:48.787Z,49.20
2019-04-30T18:46:19.159Z,49.00
2019-04-30T18:48:49.708Z,49.00
2019-04-30T18:51:32.878Z,49.10
2019-04-30T18:53:49.827Z,49.10
2019-04-30T18:56:19.192Z,49.20
2019-04-30T18:58:48.653Z,49.10
2019-04-30T19:01:18.042Z,49.30
2019-04-30T19:03:49.054Z,49.10
2019-04-30T19:06:25.768Z,49.20
2019-04-30T19:09:29.490Z,49.40
2019-04-30T19:12:25.783Z,49.50
2019-04-30T19:15:12.405Z,49.50
2019-04-30T19:17:53.693Z,49.60
2019-04-30T19:20:25.809Z,49.60
2019-04-30T19:22:54.717Z,49.60
2019-04-30T19:25:23.747Z,49.70
2019-04-30T19:27:52.647Z,49.60
2019-04-30T19:30:21.765Z,49.60
2019-04-30T19:32:50.665Z,49.60
2019-04-30T19:35:19.576Z,49.90
2019-04-30T19:37:48.772Z,49.90
2019-04-30T19:40:19.012Z,49.80
2019-04-30T19:42:50.752Z,49.80
2019-04-30T19:45:18.943Z,49.80
2019-04-30T19:47:48.975Z,50.00
2019-04-30T19:50:19.419Z,50.00
2019-04-30T19:52:48.562Z,50.00
2019-04-30T19:55:20.428Z,50.00
2019-04-30T19:57:48.389Z,50.20
2019-04-30T20:00:19.229Z,50.20
2019-04-30T20:02:48.658Z,50.20
2019-04-30T20:05:19.427Z,50.20
2019-04-30T20:07:49.330Z,50.20
2019-04-30T20:10:19.574Z,50.20
2019-04-30T20:12:49.752Z,49.90
2019-04-30T20:15:22.130Z,50.10
2019-04-30T20:17:49.985Z,50.00
2019-04-30T20:20:19.303Z,49.80
2019-04-30T20:22:48.231Z,49.50
2019-04-30T20:25:19.033Z,49.70
2019-04-30T20:27:49.580Z,49.80
2019-04-30T20:30:19.557Z,49.60
2019-04-30T20:32:49.061Z,49.90
2019-04-30T20:35:19.543Z,50.00
2019-04-30T20:38:06.277Z,49.90
2019-04-30T20:40:43.283Z,50.10
2019-04-30T20:48:51.849Z,50.10
2019-04-30T20:51:20.814Z,50.10
2019-04-30T20:53:49.918Z,50.20
2019-04-30T20:56:19.202Z,50.20
2019-04-30T20:58:55.622Z,50.00
2019-04-30T21:01:19.349Z,50.10
2019-04-30T21:03:48.626Z,49.90
2019-04-30T21:06:19.651Z,49.90
2019-04-30T21:08:48.213Z,50.00
2019-04-30T21:11:19.201Z,50.00
2019-04-30T21:13:49.129Z,50.20
2019-04-30T21:16:18.230Z,49.70
2019-04-30T21:18:47.185Z,49.70
2019-04-30T21:21:16.097Z,49.60
2019-04-30T21:23:45.004Z,49.90
2019-04-30T21:26:13.943Z,50.00
2019-04-30T21:28:42.881Z,50.00
2019-04-30T21:31:36.342Z,49.90
2019-04-30T21:34:29.326Z,49.80
2019-04-30T21:36:59.696Z,49.90
2019-04-30T21:39:28.695Z,49.80
2019-04-30T21:41:59.328Z,49.60
2019-04-30T21:44:28.293Z,49.80
2019-04-30T21:47:16.402Z,49.80
2019-04-30T21:49:45.290Z,49.80
2019-04-30T21:52:14.181Z,50.00
2019-04-30T21:54:43.118Z,50.00
2019-04-30T21:57:11.948Z,50.30
2019-04-30T21:59:40.886Z,50.10
2019-04-30T22:02:10.350Z,50.20
2019-04-30T22:04:39.301Z,50.70
2019-04-30T22:07:09.398Z,50.50
2019-04-30T22:09:38.820Z,50.50
2019-04-30T22:12:09.224Z,50.40
2019-04-30T22:14:38.557Z,50.20
2019-04-30T22:17:09.203Z,50.20
2019-04-30T22:19:38.340Z,50.30
2019-04-30T22:22:09.255Z,50.50
2019-04-30T22:24:38.848Z,50.50
2019-04-30T22:27:08.126Z,50.40
2019-04-30T22:29:39.914Z,50.70
2019-04-30T22:32:09.245Z,50.60
2019-04-30T22:34:38.357Z,50.70
2019-04-30T22:37:08.560Z,51.10
2019-04-30T22:39:45.536Z,50.60
2019-04-30T22:42:30.625Z,50.50
2019-04-30T22:45:00.274Z,50.40
2019-04-30T22:47:29.310Z,50.00
2019-04-30T22:49:58.225Z,50.20
2019-04-30T22:52:27.219Z,50.50
2019-04-30T22:54:56.210Z,50.20
2019-04-30T22:57:25.022Z,50.40
2019-04-30T22:59:53.981Z,50.40
2019-04-30T23:02:29.825Z,50.40
2019-04-30T23:04:59.099Z,50.30
2019-04-30T23:07:28.085Z,50.00
2019-04-30T23:09:57.056Z,50.20
2019-04-30T23:12:26.311Z,50.00
2019-04-30T23:14:55.163Z,50.30
2019-04-30T23:17:24.018Z,50.30
2019-04-30T23:19:53.068Z,50.30
2019-04-30T23:22:21.982Z,50.50
2019-04-30T23:24:50.882Z,50.40
2019-04-30T23:27:19.853Z,50.30
2019-04-30T23:29:48.859Z,50.10
2019-04-30T23:32:17.769Z,50.30
2019-04-30T23:34:46.607Z,50.20
2019-04-30T23:37:15.624Z,50.30
2019-04-30T23:39:44.546Z,50.30
2019-04-30T23:42:13.462Z,50.20
2019-04-30T23:44:42.283Z,50.10
2019-04-30T23:47:11.105Z,50.50
2019-04-30T23:49:39.964Z,50.30
2019-04-30T23:52:08.834Z,50.40
2019-04-30T23:54:37.783Z,50.40
2019-04-30T23:57:06.709Z,50.20
2019-04-30T23:59:35.555Z,50.30
